sensor_id;sensor_type;location;lat;lon;timestamp;temperature;humidity
74294;DHT22;64044;59.904;10.738;2024-01-07T00:01:03;-10.70;62.60
74294;DHT22;64044;59.904;10.738;2024-01-07T00:03:28;-10.80;62.50
74294;DHT22;64044;59.904;10.738;2024-01-07T00:05:54;-10.80;62.50
74294;DHT22;64044;59.904;10.738;2024-01-07T00:08:20;-10.80;62.50
74294;DHT22;64044;59.904;10.738;2024-01-07T00:10:46;-10.80;62.20
74294;DHT22;64044;59.904;10.738;2024-01-07T00:13:12;-10.80;62.10
74294;DHT22;64044;59.904;10.738;2024-01-07T00:15:38;-10.80;62.00
74294;DHT22;64044;59.904;10.738;2024-01-07T00:18:04;-10.80;62.00
74294;DHT22;64044;59.904;10.738;2024-01-07T00:20:29;-10.80;61.90
74294;DHT22;64044;59.904;10.738;2024-01-07T00:22:55;-10.80;62.00
74294;DHT22;64044;59.904;10.738;2024-01-07T00:25:21;-10.80;62.00
74294;DHT22;64044;59.904;10.738;2024-01-07T00:27:47;-10.80;62.10
74294;DHT22;64044;59.904;10.738;2024-01-07T00:30:13;-10.70;62.20
74294;DHT22;64044;59.904;10.738;2024-01-07T00:32:39;-10.80;62.20
74294;DHT22;64044;59.904;10.738;2024-01-07T00:35:05;-10.80;62.30
74294;DHT22;64044;59.904;10.738;2024-01-07T00:37:31;-10.80;62.50
74294;DHT22;64044;59.904;10.738;2024-01-07T00:39:56;-10.80;62.50
74294;DHT22;64044;59.904;10.738;2024-01-07T00:42:22;-10.70;62.50
74294;DHT22;64044;59.904;10.738;2024-01-07T00:44:48;-10.70;62.40
74294;DHT22;64044;59.904;10.738;2024-01-07T00:47:14;-10.80;62.40
74294;DHT22;64044;59.904;10.738;2024-01-07T00:49:39;-10.80;62.40
74294;DHT22;64044;59.904;10.738;2024-01-07T00:52:06;-10.70;62.40
74294;DHT22;64044;59.904;10.738;2024-01-07T00:54:32;-10.80;62.20
74294;DHT22;64044;59.904;10.738;2024-01-07T00:56:57;-10.80;62.00
74294;DHT22;64044;59.904;10.738;2024-01-07T00:59:23;-10.80;61.90
74294;DHT22;64044;59.904;10.738;2024-01-07T01:01:49;-10.80;62.00
74294;DHT22;64044;59.904;10.738;2024-01-07T01:04:15;-10.80;61.90
74294;DHT22;64044;59.904;10.738;2024-01-07T01:06:40;-10.80;61.90
74294;DHT22;64044;59.904;10.738;2024-01-07T01:09:06;-10.80;61.90
74294;DHT22;64044;59.904;10.738;2024-01-07T01:11:32;-10.80;61.90
74294;DHT22;64044;59.904;10.738;2024-01-07T01:13:58;-10.80;62.10
74294;DHT22;64044;59.904;10.738;2024-01-07T01:16:24;-10.80;61.80
74294;DHT22;64044;59.904;10.738;2024-01-07T01:18:50;-10.80;62.00
74294;DHT22;64044;59.904;10.738;2024-01-07T01:21:16;-10.90;62.80
74294;DHT22;64044;59.904;10.738;2024-01-07T01:23:42;-10.90;61.90
74294;DHT22;64044;59.904;10.738;2024-01-07T01:26:08;-10.90;61.90
74294;DHT22;64044;59.904;10.738;2024-01-07T01:28:33;-10.90;62.10
74294;DHT22;64044;59.904;10.738;2024-01-07T01:30:59;-11.00;62.20
74294;DHT22;64044;59.904;10.738;2024-01-07T01:33:25;-10.90;62.20
74294;DHT22;64044;59.904;10.738;2024-01-07T01:35:50;-10.90;62.10
74294;DHT22;64044;59.904;10.738;2024-01-07T01:38:17;-11.00;62.00
74294;DHT22;64044;59.904;10.738;2024-01-07T01:40:42;-11.00;62.10
74294;DHT22;64044;59.904;10.738;2024-01-07T01:43:08;-11.10;62.10
74294;DHT22;64044;59.904;10.738;2024-01-07T01:45:34;-11.10;61.90
74294;DHT22;64044;59.904;10.738;2024-01-07T01:48:00;-11.10;61.80
74294;DHT22;64044;59.904;10.738;2024-01-07T01:50:26;-11.10;62.10
74294;DHT22;64044;59.904;10.738;2024-01-07T01:52:52;-11.20;62.10
74294;DHT22;64044;59.904;10.738;2024-01-07T01:55:19;-11.20;62.20
74294;DHT22;64044;59.904;10.738;2024-01-07T01:57:46;-11.20;62.40
74294;DHT22;64044;59.904;10.738;2024-01-07T02:00:13;-11.20;62.20
74294;DHT22;64044;59.904;10.738;2024-01-07T02:02:38;-11.20;62.10
74294;DHT22;64044;59.904;10.738;2024-01-07T02:05:05;-11.30;62.00
74294;DHT22;64044;59.904;10.738;2024-01-07T02:07:31;-11.30;62.00
74294;DHT22;64044;59.904;10.738;2024-01-07T02:09:57;-11.30;62.20
74294;DHT22;64044;59.904;10.738;2024-01-07T02:12:23;-11.30;62.50
74294;DHT22;64044;59.904;10.738;2024-01-07T02:14:49;-11.30;62.40
74294;DHT22;64044;59.904;10.738;2024-01-07T02:17:15;-11.40;62.30
74294;DHT22;64044;59.904;10.738;2024-01-07T02:19:41;-11.40;62.30
74294;DHT22;64044;59.904;10.738;2024-01-07T02:22:07;-11.40;62.40
74294;DHT22;64044;59.904;10.738;2024-01-07T02:24:32;-11.40;62.40
74294;DHT22;64044;59.904;10.738;2024-01-07T02:26:58;-11.30;62.90
74294;DHT22;64044;59.904;10.738;2024-01-07T02:29:28;-11.40;62.90
74294;DHT22;64044;59.904;10.738;2024-01-07T02:31:54;-11.40;63.10
74294;DHT22;64044;59.904;10.738;2024-01-07T02:34:20;-11.40;62.70
74294;DHT22;64044;59.904;10.738;2024-01-07T02:36:46;-11.40;62.50
74294;DHT22;64044;59.904;10.738;2024-01-07T02:39:11;-11.40;62.50
74294;DHT22;64044;59.904;10.738;2024-01-07T02:41:37;-11.40;62.40
74294;DHT22;64044;59.904;10.738;2024-01-07T02:44:03;-11.40;62.40
74294;DHT22;64044;59.904;10.738;2024-01-07T02:46:30;-11.40;62.20
74294;DHT22;64044;59.904;10.738;2024-01-07T02:48:56;-11.40;62.30
74294;DHT22;64044;59.904;10.738;2024-01-07T02:51:22;-11.30;62.50
74294;DHT22;64044;59.904;10.738;2024-01-07T02:53:47;-11.40;62.40
74294;DHT22;64044;59.904;10.738;2024-01-07T02:56:13;-11.40;62.40
74294;DHT22;64044;59.904;10.738;2024-01-07T02:58:39;-11.40;62.30
74294;DHT22;64044;59.904;10.738;2024-01-07T03:01:08;-11.40;62.50
74294;DHT22;64044;59.904;10.738;2024-01-07T03:03:34;-11.30;62.60
74294;DHT22;64044;59.904;10.738;2024-01-07T03:06:00;-11.30;62.70
74294;DHT22;64044;59.904;10.738;2024-01-07T03:08:26;-11.30;62.70
74294;DHT22;64044;59.904;10.738;2024-01-07T03:10:53;-11.30;62.60
74294;DHT22;64044;59.904;10.738;2024-01-07T03:13:19;-11.30;62.90
74294;DHT22;64044;59.904;10.738;2024-01-07T03:15:45;-11.30;63.00
74294;DHT22;64044;59.904;10.738;2024-01-07T03:18:10;-11.30;63.10
74294;DHT22;64044;59.904;10.738;2024-01-07T03:20:36;-11.20;63.30
74294;DHT22;64044;59.904;10.738;2024-01-07T03:23:02;-11.20;63.30
74294;DHT22;64044;59.904;10.738;2024-01-07T03:25:28;-11.20;63.40
74294;DHT22;64044;59.904;10.738;2024-01-07T03:27:53;-11.20;63.20
74294;DHT22;64044;59.904;10.738;2024-01-07T03:30:19;-11.10;63.10
74294;DHT22;64044;59.904;10.738;2024-01-07T03:32:45;-11.10;63.20
74294;DHT22;64044;59.904;10.738;2024-01-07T03:35:11;-11.10;63.00
74294;DHT22;64044;59.904;10.738;2024-01-07T03:37:37;-11.10;62.90
74294;DHT22;64044;59.904;10.738;2024-01-07T03:40:03;-11.10;62.70
74294;DHT22;64044;59.904;10.738;2024-01-07T03:42:28;-11.10;62.50
74294;DHT22;64044;59.904;10.738;2024-01-07T03:44:54;-11.10;62.40
74294;DHT22;64044;59.904;10.738;2024-01-07T03:47:20;-11.10;62.40
74294;DHT22;64044;59.904;10.738;2024-01-07T03:49:45;-11.10;62.40
74294;DHT22;64044;59.904;10.738;2024-01-07T03:52:11;-11.00;62.60
74294;DHT22;64044;59.904;10.738;2024-01-07T03:54:37;-11.00;62.60
74294;DHT22;64044;59.904;10.738;2024-01-07T03:57:03;-11.00;62.70
74294;DHT22;64044;59.904;10.738;2024-01-07T03:59:28;-11.00;63.70
74294;DHT22;64044;59.904;10.738;2024-01-07T04:01:56;-11.00;63.10
74294;DHT22;64044;59.904;10.738;2024-01-07T04:04:22;-10.90;63.10
74294;DHT22;64044;59.904;10.738;2024-01-07T04:06:48;-10.90;63.10
74294;DHT22;64044;59.904;10.738;2024-01-07T04:09:14;-10.90;63.40
74294;DHT22;64044;59.904;10.738;2024-01-07T04:11:40;-10.90;63.00
74294;DHT22;64044;59.904;10.738;2024-01-07T04:14:07;-10.80;63.10
74294;DHT22;64044;59.904;10.738;2024-01-07T04:16:32;-10.80;62.90
74294;DHT22;64044;59.904;10.738;2024-01-07T04:18:58;-10.80;63.00
74294;DHT22;64044;59.904;10.738;2024-01-07T04:21:24;-10.80;63.10
74294;DHT22;64044;59.904;10.738;2024-01-07T04:23:50;-10.80;63.40
74294;DHT22;64044;59.904;10.738;2024-01-07T04:26:15;-10.80;63.50
74294;DHT22;64044;59.904;10.738;2024-01-07T04:28:41;-10.90;63.40
74294;DHT22;64044;59.904;10.738;2024-01-07T04:31:08;-10.80;63.40
74294;DHT22;64044;59.904;10.738;2024-01-07T04:33:34;-10.80;63.40
74294;DHT22;64044;59.904;10.738;2024-01-07T04:36:00;-10.80;63.20
74294;DHT22;64044;59.904;10.738;2024-01-07T04:38:27;-10.80;63.20
74294;DHT22;64044;59.904;10.738;2024-01-07T04:40:53;-10.90;64.00
74294;DHT22;64044;59.904;10.738;2024-01-07T04:43:19;-10.90;63.20
74294;DHT22;64044;59.904;10.738;2024-01-07T04:45:45;-10.90;63.20
74294;DHT22;64044;59.904;10.738;2024-01-07T04:48:11;-10.90;63.20
74294;DHT22;64044;59.904;10.738;2024-01-07T04:50:37;-10.90;63.30
74294;DHT22;64044;59.904;10.738;2024-01-07T04:53:02;-10.90;63.00
74294;DHT22;64044;59.904;10.738;2024-01-07T04:55:30;-11.00;62.90
74294;DHT22;64044;59.904;10.738;2024-01-07T04:57:55;-10.90;63.00
74294;DHT22;64044;59.904;10.738;2024-01-07T05:00:21;-10.90;62.90
74294;DHT22;64044;59.904;10.738;2024-01-07T05:02:47;-10.90;63.10
74294;DHT22;64044;59.904;10.738;2024-01-07T05:05:13;-11.00;62.90
74294;DHT22;64044;59.904;10.738;2024-01-07T05:07:39;-11.00;62.90
74294;DHT22;64044;59.904;10.738;2024-01-07T05:10:05;-11.00;63.00
74294;DHT22;64044;59.904;10.738;2024-01-07T05:12:31;-11.00;63.20
74294;DHT22;64044;59.904;10.738;2024-01-07T05:14:57;-11.00;63.30
74294;DHT22;64044;59.904;10.738;2024-01-07T05:17:23;-10.90;63.40
74294;DHT22;64044;59.904;10.738;2024-01-07T05:19:48;-11.00;63.40
74294;DHT22;64044;59.904;10.738;2024-01-07T05:22:14;-11.00;63.50
74294;DHT22;64044;59.904;10.738;2024-01-07T05:24:40;-11.00;63.50
74294;DHT22;64044;59.904;10.738;2024-01-07T05:27:06;-11.00;63.70
74294;DHT22;64044;59.904;10.738;2024-01-07T05:29:32;-11.00;63.90
74294;DHT22;64044;59.904;10.738;2024-01-07T05:32:00;-11.00;63.80
74294;DHT22;64044;59.904;10.738;2024-01-07T05:34:30;-11.00;63.60
74294;DHT22;64044;59.904;10.738;2024-01-07T05:36:55;-11.10;63.20
74294;DHT22;64044;59.904;10.738;2024-01-07T05:39:21;-11.10;63.20
74294;DHT22;64044;59.904;10.738;2024-01-07T05:41:47;-11.10;63.80
74294;DHT22;64044;59.904;10.738;2024-01-07T05:44:13;-11.20;63.00
74294;DHT22;64044;59.904;10.738;2024-01-07T05:46:39;-11.20;63.10
74294;DHT22;64044;59.904;10.738;2024-01-07T05:49:05;-11.30;63.00
74294;DHT22;64044;59.904;10.738;2024-01-07T05:51:31;-11.30;62.90
74294;DHT22;64044;59.904;10.738;2024-01-07T05:53:57;-11.40;62.90
74294;DHT22;64044;59.904;10.738;2024-01-07T05:56:23;-11.40;63.10
74294;DHT22;64044;59.904;10.738;2024-01-07T05:58:49;-11.40;63.20
74294;DHT22;64044;59.904;10.738;2024-01-07T06:01:19;-11.40;63.10
74294;DHT22;64044;59.904;10.738;2024-01-07T06:03:46;-11.40;63.30
74294;DHT22;64044;59.904;10.738;2024-01-07T06:06:13;-11.40;63.70
74294;DHT22;64044;59.904;10.738;2024-01-07T06:08:43;-11.40;63.90
74294;DHT22;64044;59.904;10.738;2024-01-07T06:11:09;-11.40;63.80
74294;DHT22;64044;59.904;10.738;2024-01-07T06:13:36;-11.40;64.20
74294;DHT22;64044;59.904;10.738;2024-01-07T06:16:02;-11.30;64.00
74294;DHT22;64044;59.904;10.738;2024-01-07T06:18:28;-11.30;63.80
74294;DHT22;64044;59.904;10.738;2024-01-07T06:20:53;-11.30;63.60
74294;DHT22;64044;59.904;10.738;2024-01-07T06:23:19;-11.20;63.70
74294;DHT22;64044;59.904;10.738;2024-01-07T06:25:45;-11.20;63.60
74294;DHT22;64044;59.904;10.738;2024-01-07T06:28:11;-11.20;63.40
74294;DHT22;64044;59.904;10.738;2024-01-07T06:30:36;-11.10;63.30
74294;DHT22;64044;59.904;10.738;2024-01-07T06:33:05;-11.10;63.30
74294;DHT22;64044;59.904;10.738;2024-01-07T06:35:31;-11.10;63.20
74294;DHT22;64044;59.904;10.738;2024-01-07T06:37:57;-11.10;63.20
74294;DHT22;64044;59.904;10.738;2024-01-07T06:40:22;-11.10;63.00
74294;DHT22;64044;59.904;10.738;2024-01-07T06:42:48;-11.10;63.00
74294;DHT22;64044;59.904;10.738;2024-01-07T06:45:16;-11.10;63.10
74294;DHT22;64044;59.904;10.738;2024-01-07T06:47:42;-11.10;63.10
74294;DHT22;64044;59.904;10.738;2024-01-07T06:50:09;-11.10;63.30
74294;DHT22;64044;59.904;10.738;2024-01-07T06:52:35;-11.00;63.30
74294;DHT22;64044;59.904;10.738;2024-01-07T06:55:01;-11.00;63.50
74294;DHT22;64044;59.904;10.738;2024-01-07T06:57:26;-11.00;63.60
74294;DHT22;64044;59.904;10.738;2024-01-07T06:59:52;-11.00;63.70
74294;DHT22;64044;59.904;10.738;2024-01-07T07:02:20;-10.90;63.80
74294;DHT22;64044;59.904;10.738;2024-01-07T07:04:46;-10.90;64.00
74294;DHT22;64044;59.904;10.738;2024-01-07T07:07:13;-10.90;64.00
74294;DHT22;64044;59.904;10.738;2024-01-07T07:09:39;-10.90;63.90
74294;DHT22;64044;59.904;10.738;2024-01-07T07:12:05;-10.90;63.90
74294;DHT22;64044;59.904;10.738;2024-01-07T07:14:31;-10.80;63.80
74294;DHT22;64044;59.904;10.738;2024-01-07T07:16:57;-10.90;63.80
74294;DHT22;64044;59.904;10.738;2024-01-07T07:19:23;-10.80;63.80
74294;DHT22;64044;59.904;10.738;2024-01-07T07:21:49;-10.80;63.50
74294;DHT22;64044;59.904;10.738;2024-01-07T07:24:14;-10.80;63.40
74294;DHT22;64044;59.904;10.738;2024-01-07T07:27:06;-10.80;63.50
74294;DHT22;64044;59.904;10.738;2024-01-07T07:29:31;-10.80;63.50
74294;DHT22;64044;59.904;10.738;2024-01-07T07:31:57;-10.80;63.50
74294;DHT22;64044;59.904;10.738;2024-01-07T07:34:23;-10.80;63.60
74294;DHT22;64044;59.904;10.738;2024-01-07T07:36:49;-10.80;63.90
74294;DHT22;64044;59.904;10.738;2024-01-07T07:39:14;-10.70;63.90
74294;DHT22;64044;59.904;10.738;2024-01-07T07:41:40;-10.70;64.00
74294;DHT22;64044;59.904;10.738;2024-01-07T07:44:06;-10.70;63.70
74294;DHT22;64044;59.904;10.738;2024-01-07T07:46:32;-10.70;63.60
74294;DHT22;64044;59.904;10.738;2024-01-07T07:48:58;-10.70;63.40
74294;DHT22;64044;59.904;10.738;2024-01-07T07:51:24;-10.70;63.60
74294;DHT22;64044;59.904;10.738;2024-01-07T07:53:50;-10.70;63.60
74294;DHT22;64044;59.904;10.738;2024-01-07T07:56:15;-10.70;63.70
74294;DHT22;64044;59.904;10.738;2024-01-07T07:58:41;-10.60;63.80
74294;DHT22;64044;59.904;10.738;2024-01-07T08:01:07;-10.60;63.80
74294;DHT22;64044;59.904;10.738;2024-01-07T08:03:33;-10.60;63.80
74294;DHT22;64044;59.904;10.738;2024-01-07T08:06:00;-10.60;63.70
74294;DHT22;64044;59.904;10.738;2024-01-07T08:08:26;-10.50;64.10
74294;DHT22;64044;59.904;10.738;2024-01-07T08:10:51;-10.50;64.20
74294;DHT22;64044;59.904;10.738;2024-01-07T08:13:17;-10.50;64.20
74294;DHT22;64044;59.904;10.738;2024-01-07T08:15:43;-10.50;64.10
74294;DHT22;64044;59.904;10.738;2024-01-07T08:18:08;-10.40;63.90
74294;DHT22;64044;59.904;10.738;2024-01-07T08:20:34;-10.40;63.80
74294;DHT22;64044;59.904;10.738;2024-01-07T08:23:00;-10.30;63.90
74294;DHT22;64044;59.904;10.738;2024-01-07T08:25:26;-10.30;64.00
74294;DHT22;64044;59.904;10.738;2024-01-07T08:27:52;-10.30;64.10
74294;DHT22;64044;59.904;10.738;2024-01-07T08:30:17;-10.30;64.20
74294;DHT22;64044;59.904;10.738;2024-01-07T08:32:43;-10.20;64.20
74294;DHT22;64044;59.904;10.738;2024-01-07T08:35:09;-10.20;64.20
74294;DHT22;64044;59.904;10.738;2024-01-07T08:37:35;-10.20;64.60
74294;DHT22;64044;59.904;10.738;2024-01-07T08:40:00;-10.20;64.40
74294;DHT22;64044;59.904;10.738;2024-01-07T08:42:27;-10.20;64.40
74294;DHT22;64044;59.904;10.738;2024-01-07T08:44:55;-10.20;64.40
74294;DHT22;64044;59.904;10.738;2024-01-07T08:47:21;-10.20;64.20
74294;DHT22;64044;59.904;10.738;2024-01-07T08:49:47;-10.20;64.10
74294;DHT22;64044;59.904;10.738;2024-01-07T08:52:12;-10.10;64.20
74294;DHT22;64044;59.904;10.738;2024-01-07T08:54:38;-10.10;64.30
74294;DHT22;64044;59.904;10.738;2024-01-07T08:57:04;-10.10;64.40
74294;DHT22;64044;59.904;10.738;2024-01-07T08:59:30;-10.20;64.20
74294;DHT22;64044;59.904;10.738;2024-01-07T09:01:56;-10.20;64.10
74294;DHT22;64044;59.904;10.738;2024-01-07T09:04:22;-10.10;64.10
74294;DHT22;64044;59.904;10.738;2024-01-07T09:06:48;-10.10;64.00
74294;DHT22;64044;59.904;10.738;2024-01-07T09:09:14;-10.10;63.80
74294;DHT22;64044;59.904;10.738;2024-01-07T09:11:40;-10.10;63.70
74294;DHT22;64044;59.904;10.738;2024-01-07T09:14:06;-10.10;63.70
74294;DHT22;64044;59.904;10.738;2024-01-07T09:16:31;-10.10;63.80
74294;DHT22;64044;59.904;10.738;2024-01-07T09:18:57;-10.10;63.70
74294;DHT22;64044;59.904;10.738;2024-01-07T09:21:23;-10.00;63.70
74294;DHT22;64044;59.904;10.738;2024-01-07T09:23:49;-10.00;63.80
74294;DHT22;64044;59.904;10.738;2024-01-07T09:26:15;-10.00;63.90
74294;DHT22;64044;59.904;10.738;2024-01-07T09:28:40;-10.00;63.80
74294;DHT22;64044;59.904;10.738;2024-01-07T09:31:08;-10.00;63.90
74294;DHT22;64044;59.904;10.738;2024-01-07T09:33:34;-9.90;63.90
74294;DHT22;64044;59.904;10.738;2024-01-07T09:35:59;-9.90;63.80
74294;DHT22;64044;59.904;10.738;2024-01-07T09:38:25;-9.90;63.80
74294;DHT22;64044;59.904;10.738;2024-01-07T09:40:51;-9.80;63.80
74294;DHT22;64044;59.904;10.738;2024-01-07T09:43:19;-9.80;63.70
74294;DHT22;64044;59.904;10.738;2024-01-07T09:45:50;-9.80;63.70
74294;DHT22;64044;59.904;10.738;2024-01-07T09:48:17;-9.70;64.00
74294;DHT22;64044;59.904;10.738;2024-01-07T09:50:43;-9.70;64.20
74294;DHT22;64044;59.904;10.738;2024-01-07T09:53:15;-9.60;64.50
74294;DHT22;64044;59.904;10.738;2024-01-07T09:58:32;-9.50;64.70
74294;DHT22;64044;59.904;10.738;2024-01-07T10:00:59;-9.40;64.60
74294;DHT22;64044;59.904;10.738;2024-01-07T10:03:25;-9.40;64.70
74294;DHT22;64044;59.904;10.738;2024-01-07T10:05:51;-9.20;64.60
74294;DHT22;64044;59.904;10.738;2024-01-07T10:08:17;-9.20;64.60
74294;DHT22;64044;59.904;10.738;2024-01-07T10:10:43;-9.10;64.60
74294;DHT22;64044;59.904;10.738;2024-01-07T10:13:09;-9.00;64.50
74294;DHT22;64044;59.904;10.738;2024-01-07T10:15:34;-8.90;64.60
74294;DHT22;64044;59.904;10.738;2024-01-07T10:18:04;-8.70;64.60
74294;DHT22;64044;59.904;10.738;2024-01-07T10:20:34;-8.60;64.50
74294;DHT22;64044;59.904;10.738;2024-01-07T10:23:01;-8.50;64.30
74294;DHT22;64044;59.904;10.738;2024-01-07T10:25:27;-8.40;64.20
74294;DHT22;64044;59.904;10.738;2024-01-07T10:27:53;-8.30;64.20
74294;DHT22;64044;59.904;10.738;2024-01-07T10:30:19;-8.30;64.30
74294;DHT22;64044;59.904;10.738;2024-01-07T10:32:46;-8.20;64.10
74294;DHT22;64044;59.904;10.738;2024-01-07T10:35:13;-8.00;64.00
74294;DHT22;64044;59.904;10.738;2024-01-07T10:37:42;-7.90;63.70
74294;DHT22;64044;59.904;10.738;2024-01-07T10:40:11;-7.90;63.60
74294;DHT22;64044;59.904;10.738;2024-01-07T10:42:38;-7.80;63.70
74294;DHT22;64044;59.904;10.738;2024-01-07T10:45:05;-7.60;64.00
74294;DHT22;64044;59.904;10.738;2024-01-07T10:47:31;-7.40;64.10
74294;DHT22;64044;59.904;10.738;2024-01-07T10:49:58;-7.30;63.70
74294;DHT22;64044;59.904;10.738;2024-01-07T10:52:27;-7.10;63.20
74294;DHT22;64044;59.904;10.738;2024-01-07T10:55:00;-7.00;62.40
74294;DHT22;64044;59.904;10.738;2024-01-07T10:57:55;-7.00;62.10
74294;DHT22;64044;59.904;10.738;2024-01-07T11:00:21;-6.90;61.90
74294;DHT22;64044;59.904;10.738;2024-01-07T11:05:56;-6.70;62.10
74294;DHT22;64044;59.904;10.738;2024-01-07T11:11:27;-6.40;62.80
74294;DHT22;64044;59.904;10.738;2024-01-07T11:13:57;-6.10;63.40
74294;DHT22;64044;59.904;10.738;2024-01-07T11:16:42;-5.80;63.60
74294;DHT22;64044;59.904;10.738;2024-01-07T11:19:08;-5.50;63.40
74294;DHT22;64044;59.904;10.738;2024-01-07T11:21:34;-5.20;63.60
74294;DHT22;64044;59.904;10.738;2024-01-07T11:24:00;-4.80;63.90
74294;DHT22;64044;59.904;10.738;2024-01-07T11:26:28;-4.40;63.40
74294;DHT22;64044;59.904;10.738;2024-01-07T11:28:57;-4.10;62.80
74294;DHT22;64044;59.904;10.738;2024-01-07T11:31:55;-3.90;61.20
74294;DHT22;64044;59.904;10.738;2024-01-07T11:34:47;-3.60;59.90
74294;DHT22;64044;59.904;10.738;2024-01-07T11:37:16;-3.50;59.30
74294;DHT22;64044;59.904;10.738;2024-01-07T11:39:46;-3.50;59.30
74294;DHT22;64044;59.904;10.738;2024-01-07T11:42:12;-3.40;58.80
74294;DHT22;64044;59.904;10.738;2024-01-07T11:44:57;-3.30;58.30
74294;DHT22;64044;59.904;10.738;2024-01-07T11:47:24;-3.20;57.20
74294;DHT22;64044;59.904;10.738;2024-01-07T11:49:53;-3.10;58.40
74294;DHT22;64044;59.904;10.738;2024-01-07T11:52:19;-2.90;58.60
74294;DHT22;64044;59.904;10.738;2024-01-07T11:54:45;-2.60;59.00
74294;DHT22;64044;59.904;10.738;2024-01-07T11:57:13;-2.40;59.10
74294;DHT22;64044;59.904;10.738;2024-01-07T11:59:39;-2.10;58.60
74294;DHT22;64044;59.904;10.738;2024-01-07T12:02:05;-1.90;57.80
74294;DHT22;64044;59.904;10.738;2024-01-07T12:04:32;-1.90;57.70
74294;DHT22;64044;59.904;10.738;2024-01-07T12:06:58;-1.80;57.00
74294;DHT22;64044;59.904;10.738;2024-01-07T12:09:27;-1.90;56.30
74294;DHT22;64044;59.904;10.738;2024-01-07T12:11:53;-2.00;55.60
74294;DHT22;64044;59.904;10.738;2024-01-07T12:14:20;-2.10;55.40
74294;DHT22;64044;59.904;10.738;2024-01-07T12:16:46;-2.20;55.10
74294;DHT22;64044;59.904;10.738;2024-01-07T12:19:12;-2.40;55.00
74294;DHT22;64044;59.904;10.738;2024-01-07T12:21:38;-2.50;55.00
74294;DHT22;64044;59.904;10.738;2024-01-07T12:24:05;-2.60;55.30
74294;DHT22;64044;59.904;10.738;2024-01-07T12:26:31;-2.60;55.10
74294;DHT22;64044;59.904;10.738;2024-01-07T12:29:00;-2.70;55.20
74294;DHT22;64044;59.904;10.738;2024-01-07T12:31:31;-2.70;55.10
74294;DHT22;64044;59.904;10.738;2024-01-07T12:33:57;-2.80;55.30
74294;DHT22;64044;59.904;10.738;2024-01-07T12:36:23;-2.80;55.70
74294;DHT22;64044;59.904;10.738;2024-01-07T12:38:50;-2.60;56.00
74294;DHT22;64044;59.904;10.738;2024-01-07T12:41:17;-2.40;57.50
74294;DHT22;64044;59.904;10.738;2024-01-07T12:43:43;-2.20;57.30
74294;DHT22;64044;59.904;10.738;2024-01-07T12:46:09;-1.90;57.00
74294;DHT22;64044;59.904;10.738;2024-01-07T12:48:35;-1.50;57.60
74294;DHT22;64044;59.904;10.738;2024-01-07T12:51:01;-1.10;56.70
74294;DHT22;64044;59.904;10.738;2024-01-07T12:53:27;-0.90;55.60
74294;DHT22;64044;59.904;10.738;2024-01-07T12:55:53;-0.60;55.20
74294;DHT22;64044;59.904;10.738;2024-01-07T12:58:19;-0.60;54.50
74294;DHT22;64044;59.904;10.738;2024-01-07T13:00:46;-0.50;53.90
74294;DHT22;64044;59.904;10.738;2024-01-07T13:03:12;-0.50;53.10
74294;DHT22;64044;59.904;10.738;2024-01-07T13:05:43;-0.30;53.60
74294;DHT22;64044;59.904;10.738;2024-01-07T13:08:09;-0.10;53.90
74294;DHT22;64044;59.904;10.738;2024-01-07T13:10:35;0.00;53.90
74294;DHT22;64044;59.904;10.738;2024-01-07T13:13:01;0.10;53.10
74294;DHT22;64044;59.904;10.738;2024-01-07T13:15:26;0.20;53.00
74294;DHT22;64044;59.904;10.738;2024-01-07T13:17:52;0.30;52.30
74294;DHT22;64044;59.904;10.738;2024-01-07T13:20:18;0.40;52.00
74294;DHT22;64044;59.904;10.738;2024-01-07T13:22:46;0.40;51.10
74294;DHT22;64044;59.904;10.738;2024-01-07T13:25:12;0.40;51.20
74294;DHT22;64044;59.904;10.738;2024-01-07T13:27:38;0.40;51.80
74294;DHT22;64044;59.904;10.738;2024-01-07T13:30:04;0.30;50.60
74294;DHT22;64044;59.904;10.738;2024-01-07T13:32:31;0.30;50.60
74294;DHT22;64044;59.904;10.738;2024-01-07T13:35:02;0.20;49.90
74294;DHT22;64044;59.904;10.738;2024-01-07T13:37:28;0.00;49.90
74294;DHT22;64044;59.904;10.738;2024-01-07T13:39:54;-0.10;49.90
74294;DHT22;64044;59.904;10.738;2024-01-07T13:42:20;-0.30;49.90
74294;DHT22;64044;59.904;10.738;2024-01-07T13:44:45;-0.50;49.70
74294;DHT22;64044;59.904;10.738;2024-01-07T13:47:12;-0.70;49.70
74294;DHT22;64044;59.904;10.738;2024-01-07T13:49:42;-1.00;49.70
74294;DHT22;64044;59.904;10.738;2024-01-07T13:52:07;-1.20;49.90
74294;DHT22;64044;59.904;10.738;2024-01-07T13:54:33;-1.50;49.70
74294;DHT22;64044;59.904;10.738;2024-01-07T13:56:59;-1.80;50.10
74294;DHT22;64044;59.904;10.738;2024-01-07T13:59:25;-2.10;49.80
74294;DHT22;64044;59.904;10.738;2024-01-07T14:01:51;-2.30;50.30
74294;DHT22;64044;59.904;10.738;2024-01-07T14:04:17;-2.40;51.00
74294;DHT22;64044;59.904;10.738;2024-01-07T14:06:43;-2.50;51.10
74294;DHT22;64044;59.904;10.738;2024-01-07T14:09:13;-2.60;51.70
74294;DHT22;64044;59.904;10.738;2024-01-07T14:11:38;-2.70;51.70
74294;DHT22;64044;59.904;10.738;2024-01-07T14:14:04;-2.90;51.60
74294;DHT22;64044;59.904;10.738;2024-01-07T14:16:30;-3.00;51.40
74294;DHT22;64044;59.904;10.738;2024-01-07T14:18:55;-3.20;51.00
74294;DHT22;64044;59.904;10.738;2024-01-07T14:21:21;-3.40;51.20
74294;DHT22;64044;59.904;10.738;2024-01-07T14:23:47;-3.70;51.40
74294;DHT22;64044;59.904;10.738;2024-01-07T14:26:13;-3.90;51.40
74294;DHT22;64044;59.904;10.738;2024-01-07T14:28:40;-4.20;51.20
74294;DHT22;64044;59.904;10.738;2024-01-07T14:31:06;-4.40;51.50
74294;DHT22;64044;59.904;10.738;2024-01-07T14:33:32;-4.70;51.70
74294;DHT22;64044;59.904;10.738;2024-01-07T14:35:58;-5.00;51.80
74294;DHT22;64044;59.904;10.738;2024-01-07T14:38:25;-5.20;51.90
74294;DHT22;64044;59.904;10.738;2024-01-07T14:40:51;-5.40;52.10
74294;DHT22;64044;59.904;10.738;2024-01-07T14:43:17;-5.60;52.50
74294;DHT22;64044;59.904;10.738;2024-01-07T14:45:43;-5.80;52.60
74294;DHT22;64044;59.904;10.738;2024-01-07T14:48:09;-6.00;52.90
74294;DHT22;64044;59.904;10.738;2024-01-07T14:50:35;-6.20;53.10
74294;DHT22;64044;59.904;10.738;2024-01-07T14:53:01;-6.40;53.30
74294;DHT22;64044;59.904;10.738;2024-01-07T14:55:27;-6.50;53.40
74294;DHT22;64044;59.904;10.738;2024-01-07T14:57:52;-6.70;53.60
74294;DHT22;64044;59.904;10.738;2024-01-07T15:00:18;-6.80;53.80
74294;DHT22;64044;59.904;10.738;2024-01-07T15:02:44;-6.90;54.00
74294;DHT22;64044;59.904;10.738;2024-01-07T15:05:10;-7.10;54.20
74294;DHT22;64044;59.904;10.738;2024-01-07T15:07:35;-7.20;54.30
74294;DHT22;64044;59.904;10.738;2024-01-07T15:10:01;-7.30;54.50
74294;DHT22;64044;59.904;10.738;2024-01-07T15:12:27;-7.40;54.60